sensor_id;sensor_type;location;lat;lon;timestamp;P1;durP1;ratioP1;P2;durP2;ratioP2
17189;SDS011;8710;49.880;8.272;2022-07-29T00:01:47;2.85;;;1.52;;
17189;SDS011;8710;49.880;8.272;2022-07-29T00:04:16;2.40;;;1.73;;
17189;SDS011;8710;49.880;8.272;2022-07-29T00:06:43;3.72;;;1.70;;
17189;SDS011;8710;49.880;8.272;2022-07-29T00:09:10;6.20;;;1.80;;
17189;SDS011;8710;49.880;8.272;2022-07-29T00:11:36;4.15;;;1.60;;
17189;SDS011;8710;49.880;8.272;2022-07-29T00:14:03;4.20;;;1.63;;
17189;SDS011;8710;49.880;8.272;2022-07-29T00:16:30;8.13;;;1.60;;
17189;SDS011;8710;49.880;8.272;2022-07-29T00:18:58;3.10;;;1.50;;
17189;SDS011;8710;49.880;8.272;2022-07-29T00:21:26;1.97;;;1.57;;
17189;SDS011;8710;49.880;8.272;2022-07-29T00:23:53;3.97;;;1.50;;
17189;SDS011;8710;49.880;8.272;2022-07-29T00:26:20;4.22;;;1.60;;
17189;SDS011;8710;49.880;8.272;2022-07-29T00:28:47;2.58;;;1.35;;
17189;SDS011;8710;49.880;8.272;2022-07-29T00:31:14;13.60;;;3.60;;
17189;SDS011;8710;49.880;8.272;2022-07-29T00:33:40;8.90;;;3.38;;
17189;SDS011;8710;49.880;8.272;2022-07-29T00:36:07;6.90;;;2.47;;
17189;SDS011;8710;49.880;8.272;2022-07-29T00:38:35;3.57;;;1.83;;
17189;SDS011;8710;49.880;8.272;2022-07-29T00:41:02;4.87;;;2.00;;
17189;SDS011;8710;49.880;8.272;2022-07-29T00:43:29;7.87;;;2.00;;
17189;SDS011;8710;49.880;8.272;2022-07-29T00:45:55;5.53;;;1.77;;
17189;SDS011;8710;49.880;8.272;2022-07-29T00:48:22;5.00;;;2.00;;
17189;SDS011;8710;49.880;8.272;2022-07-29T00:50:49;3.57;;;2.13;;
17189;SDS011;8710;49.880;8.272;2022-07-29T00:53:16;5.27;;;1.80;;
17189;SDS011;8710;49.880;8.272;2022-07-29T00:55:44;4.43;;;1.80;;
17189;SDS011;8710;49.880;8.272;2022-07-29T00:58:12;3.53;;;1.97;;
17189;SDS011;8710;49.880;8.272;2022-07-29T01:00:39;3.63;;;1.70;;
17189;SDS011;8710;49.880;8.272;2022-07-29T01:03:06;4.80;;;1.73;;
17189;SDS011;8710;49.880;8.272;2022-07-29T01:05:34;5.53;;;1.80;;
17189;SDS011;8710;49.880;8.272;2022-07-29T01:08:01;3.13;;;2.03;;
17189;SDS011;8710;49.880;8.272;2022-07-29T01:10:28;5.33;;;1.80;;
17189;SDS011;8710;49.880;8.272;2022-07-29T01:12:58;1.73;;;1.63;;
17189;SDS011;8710;49.880;8.272;2022-07-29T01:15:27;2.13;;;1.60;;
17189;SDS011;8710;49.880;8.272;2022-07-29T01:17:57;2.37;;;1.80;;
17189;SDS011;8710;49.880;8.272;2022-07-29T01:20:32;4.23;;;1.80;;
17189;SDS011;8710;49.880;8.272;2022-07-29T01:26:13;2.97;;;1.60;;
17189;SDS011;8710;49.880;8.272;2022-07-29T01:29:08;2.17;;;1.60;;
17189;SDS011;8710;49.880;8.272;2022-07-29T01:31:43;4.23;;;1.90;;
17189;SDS011;8710;49.880;8.272;2022-07-29T01:34:16;3.27;;;1.90;;
17189;SDS011;8710;49.880;8.272;2022-07-29T01:36:48;6.07;;;1.90;;
17189;SDS011;8710;49.880;8.272;2022-07-29T01:39:19;3.03;;;2.00;;
17189;SDS011;8710;49.880;8.272;2022-07-29T01:41:56;3.47;;;1.90;;
17189;SDS011;8710;49.880;8.272;2022-07-29T01:44:30;6.60;;;2.37;;
17189;SDS011;8710;49.880;8.272;2022-07-29T01:47:02;4.07;;;1.90;;
17189;SDS011;8710;49.880;8.272;2022-07-29T01:49:35;4.80;;;2.10;;
17189;SDS011;8710;49.880;8.272;2022-07-29T01:52:07;8.57;;;2.40;;
17189;SDS011;8710;49.880;8.272;2022-07-29T01:54:38;3.77;;;2.27;;
17189;SDS011;8710;49.880;8.272;2022-07-29T01:57:08;4.30;;;2.10;;
17189;SDS011;8710;49.880;8.272;2022-07-29T01:59:40;6.87;;;1.93;;
17189;SDS011;8710;49.880;8.272;2022-07-29T02:02:09;5.07;;;2.27;;
17189;SDS011;8710;49.880;8.272;2022-07-29T02:04:39;4.33;;;2.03;;
17189;SDS011;8710;49.880;8.272;2022-07-29T02:07:09;5.13;;;2.20;;
17189;SDS011;8710;49.880;8.272;2022-07-29T02:09:40;3.03;;;2.00;;
17189;SDS011;8710;49.880;8.272;2022-07-29T02:12:08;6.97;;;2.60;;
17189;SDS011;8710;49.880;8.272;2022-07-29T02:14:38;4.50;;;2.13;;
17189;SDS011;8710;49.880;8.272;2022-07-29T02:17:10;2.50;;;2.10;;
17189;SDS011;8710;49.880;8.272;2022-07-29T02:19:38;3.90;;;2.27;;
17189;SDS011;8710;49.880;8.272;2022-07-29T02:22:07;5.77;;;2.20;;
17189;SDS011;8710;49.880;8.272;2022-07-29T02:24:35;3.63;;;2.37;;
17189;SDS011;8710;49.880;8.272;2022-07-29T02:27:05;3.60;;;2.50;;
17189;SDS011;8710;49.880;8.272;2022-07-29T02:29:34;3.17;;;2.50;;
17189;SDS011;8710;49.880;8.272;2022-07-29T02:32:03;4.90;;;2.67;;
17189;SDS011;8710;49.880;8.272;2022-07-29T02:34:34;6.67;;;2.90;;
17189;SDS011;8710;49.880;8.272;2022-07-29T02:37:04;6.70;;;2.43;;
17189;SDS011;8710;49.880;8.272;2022-07-29T02:39:34;6.53;;;2.00;;
17189;SDS011;8710;49.880;8.272;2022-07-29T02:42:03;3.23;;;2.33;;
17189;SDS011;8710;49.880;8.272;2022-07-29T02:44:33;3.63;;;2.47;;
17189;SDS011;8710;49.880;8.272;2022-07-29T02:47:02;2.77;;;2.17;;
17189;SDS011;8710;49.880;8.272;2022-07-29T02:49:41;6.17;;;2.33;;
17189;SDS011;8710;49.880;8.272;2022-07-29T02:52:12;6.13;;;2.40;;
17189;SDS011;8710;49.880;8.272;2022-07-29T02:54:46;4.57;;;2.27;;
17189;SDS011;8710;49.880;8.272;2022-07-29T02:57:20;3.70;;;2.50;;
17189;SDS011;8710;49.880;8.272;2022-07-29T02:59:51;6.10;;;2.27;;
17189;SDS011;8710;49.880;8.272;2022-07-29T03:02:22;4.23;;;2.60;;
17189;SDS011;8710;49.880;8.272;2022-07-29T03:04:53;7.07;;;2.87;;
17189;SDS011;8710;49.880;8.272;2022-07-29T03:07:21;5.10;;;2.30;;
17189;SDS011;8710;49.880;8.272;2022-07-29T03:09:49;2.97;;;2.30;;
17189;SDS011;8710;49.880;8.272;2022-07-29T03:12:17;4.37;;;2.47;;
17189;SDS011;8710;49.880;8.272;2022-07-29T03:14:44;3.87;;;2.60;;
17189;SDS011;8710;49.880;8.272;2022-07-29T03:17:13;5.67;;;2.30;;
17189;SDS011;8710;49.880;8.272;2022-07-29T03:19:41;6.93;;;2.30;;
17189;SDS011;8710;49.880;8.272;2022-07-29T03:22:10;6.10;;;2.33;;
17189;SDS011;8710;49.880;8.272;2022-07-29T03:24:37;4.53;;;2.33;;
17189;SDS011;8710;49.880;8.272;2022-07-29T03:27:04;5.43;;;2.47;;
17189;SDS011;8710;49.880;8.272;2022-07-29T03:29:31;3.87;;;2.40;;
17189;SDS011;8710;49.880;8.272;2022-07-29T03:31:59;6.77;;;2.43;;
17189;SDS011;8710;49.880;8.272;2022-07-29T03:34:26;3.30;;;2.27;;
17189;SDS011;8710;49.880;8.272;2022-07-29T03:36:53;6.00;;;2.43;;
17189;SDS011;8710;49.880;8.272;2022-07-29T03:39:23;5.23;;;2.47;;
17189;SDS011;8710;49.880;8.272;2022-07-29T03:41:55;4.67;;;2.40;;
17189;SDS011;8710;49.880;8.272;2022-07-29T03:44:23;4.87;;;2.37;;
17189;SDS011;8710;49.880;8.272;2022-07-29T03:46:54;3.37;;;2.30;;
17189;SDS011;8710;49.880;8.272;2022-07-29T03:49:24;6.97;;;2.47;;
17189;SDS011;8710;49.880;8.272;2022-07-29T03:51:52;5.90;;;2.33;;
17189;SDS011;8710;49.880;8.272;2022-07-29T03:54:19;3.80;;;2.27;;
17189;SDS011;8710;49.880;8.272;2022-07-29T03:56:48;3.10;;;2.37;;
17189;SDS011;8710;49.880;8.272;2022-07-29T03:59:17;2.37;;;2.17;;
17189;SDS011;8710;49.880;8.272;2022-07-29T04:01:44;3.80;;;2.10;;
17189;SDS011;8710;49.880;8.272;2022-07-29T04:04:12;3.17;;;2.40;;
17189;SDS011;8710;49.880;8.272;2022-07-29T04:06:39;3.57;;;2.00;;
17189;SDS011;8710;49.880;8.272;2022-07-29T04:09:07;5.37;;;1.90;;
17189;SDS011;8710;49.880;8.272;2022-07-29T04:11:35;4.07;;;2.30;;
17189;SDS011;8710;49.880;8.272;2022-07-29T04:14:05;6.07;;;2.10;;
17189;SDS011;8710;49.880;8.272;2022-07-29T04:16:32;3.80;;;2.40;;
17189;SDS011;8710;49.880;8.272;2022-07-29T04:18:59;2.40;;;2.10;;
17189;SDS011;8710;49.880;8.272;2022-07-29T04:21:26;2.23;;;1.83;;
17189;SDS011;8710;49.880;8.272;2022-07-29T04:23:53;3.73;;;2.10;;
17189;SDS011;8710;49.880;8.272;2022-07-29T04:26:20;4.03;;;2.47;;
17189;SDS011;8710;49.880;8.272;2022-07-29T04:28:47;3.77;;;2.23;;
17189;SDS011;8710;49.880;8.272;2022-07-29T04:31:15;2.60;;;2.00;;
17189;SDS011;8710;49.880;8.272;2022-07-29T04:33:42;4.03;;;2.17;;
17189;SDS011;8710;49.880;8.272;2022-07-29T04:36:09;3.93;;;2.03;;
17189;SDS011;8710;49.880;8.272;2022-07-29T04:38:37;4.53;;;2.27;;
17189;SDS011;8710;49.880;8.272;2022-07-29T04:41:04;5.83;;;2.50;;
17189;SDS011;8710;49.880;8.272;2022-07-29T04:43:33;4.93;;;2.33;;
17189;SDS011;8710;49.880;8.272;2022-07-29T04:46:00;5.13;;;2.00;;
17189;SDS011;8710;49.880;8.272;2022-07-29T04:48:29;5.90;;;2.53;;
17189;SDS011;8710;49.880;8.272;2022-07-29T04:50:56;6.03;;;2.20;;
17189;SDS011;8710;49.880;8.272;2022-07-29T04:53:22;4.07;;;2.10;;
17189;SDS011;8710;49.880;8.272;2022-07-29T04:55:49;5.30;;;2.23;;
17189;SDS011;8710;49.880;8.272;2022-07-29T04:58:17;3.67;;;2.30;;
17189;SDS011;8710;49.880;8.272;2022-07-29T05:00:43;5.53;;;2.20;;
17189;SDS011;8710;49.880;8.272;2022-07-29T05:03:11;4.80;;;2.20;;
17189;SDS011;8710;49.880;8.272;2022-07-29T05:05:39;3.90;;;1.97;;
17189;SDS011;8710;49.880;8.272;2022-07-29T05:08:07;3.37;;;2.27;;
17189;SDS011;8710;49.880;8.272;2022-07-29T05:10:34;3.27;;;2.30;;
17189;SDS011;8710;49.880;8.272;2022-07-29T05:13:03;5.00;;;2.33;;
17189;SDS011;8710;49.880;8.272;2022-07-29T05:15:30;6.67;;;2.30;;
17189;SDS011;8710;49.880;8.272;2022-07-29T05:17:57;5.03;;;2.37;;
17189;SDS011;8710;49.880;8.272;2022-07-29T05:20:24;2.80;;;2.13;;
17189;SDS011;8710;49.880;8.272;2022-07-29T05:22:54;4.10;;;2.90;;
17189;SDS011;8710;49.880;8.272;2022-07-29T05:25:22;5.80;;;2.77;;
17189;SDS011;8710;49.880;8.272;2022-07-29T05:27:49;3.43;;;2.50;;
17189;SDS011;8710;49.880;8.272;2022-07-29T05:30:16;7.07;;;2.37;;
17189;SDS011;8710;49.880;8.272;2022-07-29T05:32:44;3.23;;;2.30;;
17189;SDS011;8710;49.880;8.272;2022-07-29T05:35:11;4.00;;;2.50;;
17189;SDS011;8710;49.880;8.272;2022-07-29T05:37:39;5.43;;;2.47;;
17189;SDS011;8710;49.880;8.272;2022-07-29T05:40:08;5.07;;;2.80;;
17189;SDS011;8710;49.880;8.272;2022-07-29T05:42:35;5.73;;;2.47;;
17189;SDS011;8710;49.880;8.272;2022-07-29T05:45:02;5.30;;;2.50;;
17189;SDS011;8710;49.880;8.272;2022-07-29T05:47:30;5.17;;;2.23;;
17189;SDS011;8710;49.880;8.272;2022-07-29T05:49:57;5.40;;;2.67;;
17189;SDS011;8710;49.880;8.272;2022-07-29T05:52:23;8.37;;;2.43;;
17189;SDS011;8710;49.880;8.272;2022-07-29T05:54:51;6.17;;;2.53;;
17189;SDS011;8710;49.880;8.272;2022-07-29T05:57:21;3.83;;;2.50;;
17189;SDS011;8710;49.880;8.272;2022-07-29T05:59:49;3.17;;;2.37;;
17189;SDS011;8710;49.880;8.272;2022-07-29T06:02:17;3.73;;;2.53;;
17189;SDS011;8710;49.880;8.272;2022-07-29T06:04:44;2.53;;;2.10;;
17189;SDS011;8710;49.880;8.272;2022-07-29T06:07:11;4.17;;;2.30;;
17189;SDS011;8710;49.880;8.272;2022-07-29T06:09:38;3.83;;;2.43;;
17189;SDS011;8710;49.880;8.272;2022-07-29T06:12:05;4.27;;;2.30;;
17189;SDS011;8710;49.880;8.272;2022-07-29T06:17:03;4.50;;;2.27;;
17189;SDS011;8710;49.880;8.272;2022-07-29T06:19:30;6.97;;;2.50;;
17189;SDS011;8710;49.880;8.272;2022-07-29T06:21:57;4.28;;;2.38;;
17189;SDS011;8710;49.880;8.272;2022-07-29T06:24:24;5.28;;;2.40;;
17189;SDS011;8710;49.880;8.272;2022-07-29T06:26:51;3.72;;;2.05;;
17189;SDS011;8710;49.880;8.272;2022-07-29T06:29:18;3.80;;;2.47;;
17189;SDS011;8710;49.880;8.272;2022-07-29T06:31:46;4.72;;;2.33;;
17189;SDS011;8710;49.880;8.272;2022-07-29T06:34:13;3.00;;;2.20;;
17189;SDS011;8710;49.880;8.272;2022-07-29T06:36:40;2.67;;;2.22;;
17189;SDS011;8710;49.880;8.272;2022-07-29T06:39:07;4.43;;;2.60;;
17189;SDS011;8710;49.880;8.272;2022-07-29T06:41:34;4.13;;;2.65;;
17189;SDS011;8710;49.880;8.272;2022-07-29T06:44:01;6.25;;;2.28;;
17189;SDS011;8710;49.880;8.272;2022-07-29T06:46:29;5.40;;;2.58;;
17189;SDS011;8710;49.880;8.272;2022-07-29T06:48:58;6.95;;;2.70;;
17189;SDS011;8710;49.880;8.272;2022-07-29T06:51:26;5.25;;;2.50;;
17189;SDS011;8710;49.880;8.272;2022-07-29T06:53:53;4.30;;;2.50;;
17189;SDS011;8710;49.880;8.272;2022-07-29T06:56:20;4.10;;;2.22;;
17189;SDS011;8710;49.880;8.272;2022-07-29T06:58:47;5.68;;;2.90;;
17189;SDS011;8710;49.880;8.272;2022-07-29T07:01:14;5.07;;;2.63;;
17189;SDS011;8710;49.880;8.272;2022-07-29T07:03:41;4.53;;;2.70;;
17189;SDS011;8710;49.880;8.272;2022-07-29T07:06:09;3.80;;;2.67;;
17189;SDS011;8710;49.880;8.272;2022-07-29T07:08:37;3.53;;;2.47;;
17189;SDS011;8710;49.880;8.272;2022-07-29T07:11:04;5.47;;;2.85;;
17189;SDS011;8710;49.880;8.272;2022-07-29T07:13:32;8.23;;;2.47;;
17189;SDS011;8710;49.880;8.272;2022-07-29T07:15:59;6.60;;;2.50;;
17189;SDS011;8710;49.880;8.272;2022-07-29T07:18:26;12.15;;;3.08;;
17189;SDS011;8710;49.880;8.272;2022-07-29T07:20:54;5.75;;;2.78;;
17189;SDS011;8710;49.880;8.272;2022-07-29T07:23:23;5.10;;;2.70;;
17189;SDS011;8710;49.880;8.272;2022-07-29T07:25:50;5.72;;;2.67;;
17189;SDS011;8710;49.880;8.272;2022-07-29T07:28:17;4.07;;;2.63;;
17189;SDS011;8710;49.880;8.272;2022-07-29T07:30:44;7.15;;;2.75;;
17189;SDS011;8710;49.880;8.272;2022-07-29T07:33:11;5.95;;;2.60;;
17189;SDS011;8710;49.880;8.272;2022-07-29T07:35:38;3.90;;;2.60;;
17189;SDS011;8710;49.880;8.272;2022-07-29T07:38:05;5.40;;;2.63;;
17189;SDS011;8710;49.880;8.272;2022-07-29T07:40:33;9.07;;;2.72;;
17189;SDS011;8710;49.880;8.272;2022-07-29T07:43:00;5.13;;;2.70;;
17189;SDS011;8710;49.880;8.272;2022-07-29T07:45:27;3.88;;;2.38;;
17189;SDS011;8710;49.880;8.272;2022-07-29T07:47:54;4.72;;;2.72;;
17189;SDS011;8710;49.880;8.272;2022-07-29T07:50:21;6.53;;;2.53;;
17189;SDS011;8710;49.880;8.272;2022-07-29T07:52:48;6.32;;;2.60;;
17189;SDS011;8710;49.880;8.272;2022-07-29T07:55:17;4.30;;;2.70;;
17189;SDS011;8710;49.880;8.272;2022-07-29T07:57:45;9.27;;;2.90;;
17189;SDS011;8710;49.880;8.272;2022-07-29T08:00:13;4.47;;;2.30;;
17189;SDS011;8710;49.880;8.272;2022-07-29T08:02:41;3.40;;;2.10;;
17189;SDS011;8710;49.880;8.272;2022-07-29T08:05:10;4.20;;;2.45;;
17189;SDS011;8710;49.880;8.272;2022-07-29T08:07:41;3.17;;;2.20;;
17189;SDS011;8710;49.880;8.272;2022-07-29T08:10:09;4.10;;;2.40;;
17189;SDS011;8710;49.880;8.272;2022-07-29T08:12:36;2.88;;;2.40;;
17189;SDS011;8710;49.880;8.272;2022-07-29T08:15:05;5.55;;;2.60;;
17189;SDS011;8710;49.880;8.272;2022-07-29T08:17:33;2.92;;;2.30;;
17189;SDS011;8710;49.880;8.272;2022-07-29T08:20:00;4.55;;;2.13;;
17189;SDS011;8710;49.880;8.272;2022-07-29T08:22:28;5.88;;;2.70;;
17189;SDS011;8710;49.880;8.272;2022-07-29T08:24:55;2.58;;;2.38;;
17189;SDS011;8710;49.880;8.272;2022-07-29T08:27:22;2.75;;;2.28;;
17189;SDS011;8710;49.880;8.272;2022-07-29T08:29:51;4.55;;;2.30;;
17189;SDS011;8710;49.880;8.272;2022-07-29T08:32:19;4.63;;;2.47;;
17189;SDS011;8710;49.880;8.272;2022-07-29T08:34:46;3.50;;;2.33;;
17189;SDS011;8710;49.880;8.272;2022-07-29T08:37:13;3.78;;;2.55;;
17189;SDS011;8710;49.880;8.272;2022-07-29T08:39:40;5.78;;;2.92;;
17189;SDS011;8710;49.880;8.272;2022-07-29T08:42:07;5.45;;;2.50;;
17189;SDS011;8710;49.880;8.272;2022-07-29T08:44:35;3.72;;;2.38;;
17189;SDS011;8710;49.880;8.272;2022-07-29T08:47:02;3.90;;;2.50;;
17189;SDS011;8710;49.880;8.272;2022-07-29T08:49:31;3.17;;;2.30;;
17189;SDS011;8710;49.880;8.272;2022-07-29T08:52:00;6.38;;;2.53;;
17189;SDS011;8710;49.880;8.272;2022-07-29T08:54:27;2.95;;;2.40;;
17189;SDS011;8710;49.880;8.272;2022-07-29T08:56:55;6.72;;;2.53;;
17189;SDS011;8710;49.880;8.272;2022-07-29T08:59:22;5.43;;;2.55;;
17189;SDS011;8710;49.880;8.272;2022-07-29T09:01:52;3.65;;;2.30;;
17189;SDS011;8710;49.880;8.272;2022-07-29T09:04:20;3.85;;;2.55;;
17189;SDS011;8710;49.880;8.272;2022-07-29T09:06:49;4.47;;;2.60;;
17189;SDS011;8710;49.880;8.272;2022-07-29T09:09:19;2.72;;;2.53;;
17189;SDS011;8710;49.880;8.272;2022-07-29T09:11:47;3.22;;;2.60;;
17189;SDS011;8710;49.880;8.272;2022-07-29T09:14:14;2.50;;;2.30;;
17189;SDS011;8710;49.880;8.272;2022-07-29T09:16:48;3.78;;;2.30;;
17189;SDS011;8710;49.880;8.272;2022-07-29T09:19:20;4.15;;;2.40;;
17189;SDS011;8710;49.880;8.272;2022-07-29T09:21:50;4.90;;;2.50;;
17189;SDS011;8710;49.880;8.272;2022-07-29T09:24:23;3.05;;;2.47;;
17189;SDS011;8710;49.880;8.272;2022-07-29T09:26:51;9.05;;;2.95;;
17189;SDS011;8710;49.880;8.272;2022-07-29T09:29:19;4.60;;;2.60;;
17189;SDS011;8710;49.880;8.272;2022-07-29T09:31:49;3.75;;;2.60;;
17189;SDS011;8710;49.880;8.272;2022-07-29T09:34:20;3.85;;;2.88;;
17189;SDS011;8710;49.880;8.272;2022-07-29T09:36:50;4.25;;;2.42;;
17189;SDS011;8710;49.880;8.272;2022-07-29T09:39:28;3.47;;;2.45;;
17189;SDS011;8710;49.880;8.272;2022-07-29T09:41:57;3.35;;;2.38;;
17189;SDS011;8710;49.880;8.272;2022-07-29T09:44:25;5.22;;;2.58;;
17189;SDS011;8710;49.880;8.272;2022-07-29T09:46:57;6.10;;;3.10;;
17189;SDS011;8710;49.880;8.272;2022-07-29T09:49:30;5.65;;;2.53;;
17189;SDS011;8710;49.880;8.272;2022-07-29T09:52:00;8.18;;;2.35;;
17189;SDS011;8710;49.880;8.272;2022-07-29T09:54:32;5.18;;;3.03;;
17189;SDS011;8710;49.880;8.272;2022-07-29T09:57:02;3.85;;;2.92;;
17189;SDS011;8710;49.880;8.272;2022-07-29T09:59:31;3.20;;;2.35;;
17189;SDS011;8710;49.880;8.272;2022-07-29T10:01:58;3.35;;;2.25;;
17189;SDS011;8710;49.880;8.272;2022-07-29T10:04:36;3.67;;;2.67;;
17189;SDS011;8710;49.880;8.272;2022-07-29T10:07:06;4.43;;;2.55;;
17189;SDS011;8710;49.880;8.272;2022-07-29T10:09:33;4.15;;;2.45;;
17189;SDS011;8710;49.880;8.272;2022-07-29T10:12:04;5.45;;;2.70;;
17189;SDS011;8710;49.880;8.272;2022-07-29T10:14:35;3.08;;;2.65;;
17189;SDS011;8710;49.880;8.272;2022-07-29T10:17:03;4.55;;;2.45;;
17189;SDS011;8710;49.880;8.272;2022-07-29T10:19:32;3.72;;;2.30;;
17189;SDS011;8710;49.880;8.272;2022-07-29T10:22:00;5.20;;;2.42;;
17189;SDS011;8710;49.880;8.272;2022-07-29T10:24:31;5.05;;;2.83;;
17189;SDS011;8710;49.880;8.272;2022-07-29T10:27:00;3.17;;;2.88;;
17189;SDS011;8710;49.880;8.272;2022-07-29T10:29:28;5.18;;;2.60;;
17189;SDS011;8710;49.880;8.272;2022-07-29T10:35:06;3.30;;;2.50;;
17189;SDS011;8710;49.880;8.272;2022-07-29T10:37:46;4.03;;;2.50;;
17189;SDS011;8710;49.880;8.272;2022-07-29T10:40:28;4.05;;;2.50;;
17189;SDS011;8710;49.880;8.272;2022-07-29T10:43:23;4.45;;;2.60;;
17189;SDS011;8710;49.880;8.272;2022-07-29T10:45:55;3.25;;;2.70;;
17189;SDS011;8710;49.880;8.272;2022-07-29T10:48:22;3.13;;;2.80;;
17189;SDS011;8710;49.880;8.272;2022-07-29T10:50:53;3.42;;;2.50;;
17189;SDS011;8710;49.880;8.272;2022-07-29T10:53:20;4.72;;;2.42;;
17189;SDS011;8710;49.880;8.272;2022-07-29T10:55:49;4.15;;;2.60;;
17189;SDS011;8710;49.880;8.272;2022-07-29T10:58:18;3.10;;;2.80;;
17189;SDS011;8710;49.880;8.272;2022-07-29T11:00:48;5.53;;;2.75;;
17189;SDS011;8710;49.880;8.272;2022-07-29T11:06:12;4.10;;;2.60;;
17189;SDS011;8710;49.880;8.272;2022-07-29T11:08:40;4.20;;;2.53;;
17189;SDS011;8710;49.880;8.272;2022-07-29T11:13:57;6.05;;;2.78;;
17189;SDS011;8710;49.880;8.272;2022-07-29T11:16:24;5.88;;;2.72;;
17189;SDS011;8710;49.880;8.272;2022-07-29T11:21:47;4.15;;;2.70;;
17189;SDS011;8710;49.880;8.272;2022-07-29T11:24:16;4.30;;;2.80;;
17189;SDS011;8710;49.880;8.272;2022-07-29T11:26:47;5.88;;;2.80;;
17189;SDS011;8710;49.880;8.272;2022-07-29T11:29:40;2.95;;;2.47;;
17189;SDS011;8710;49.880;8.272;2022-07-29T11:32:15;2.90;;;2.63;;
17189;SDS011;8710;49.880;8.272;2022-07-29T11:34:44;3.63;;;2.75;;
17189;SDS011;8710;49.880;8.272;2022-07-29T11:37:22;5.53;;;2.88;;
17189;SDS011;8710;49.880;8.272;2022-07-29T11:40:12;5.00;;;2.47;;
17189;SDS011;8710;49.880;8.272;2022-07-29T11:42:43;2.92;;;2.60;;
17189;SDS011;8710;49.880;8.272;2022-07-29T11:45:17;3.05;;;2.60;;
17189;SDS011;8710;49.880;8.272;2022-07-29T11:47:57;3.45;;;2.90;;
17189;SDS011;8710;49.880;8.272;2022-07-29T11:50:29;2.72;;;2.40;;
17189;SDS011;8710;49.880;8.272;2022-07-29T11:52:58;3.58;;;2.90;;
17189;SDS011;8710;49.880;8.272;2022-07-29T11:55:26;3.63;;;2.50;;
17189;SDS011;8710;49.880;8.272;2022-07-29T11:57:56;3.22;;;2.55;;
17189;SDS011;8710;49.880;8.272;2022-07-29T12:00:28;4.40;;;2.67;;
17189;SDS011;8710;49.880;8.272;2022-07-29T12:02:58;2.95;;;2.67;;
17189;SDS011;8710;49.880;8.272;2022-07-29T12:05:36;6.28;;;2.42;;
17189;SDS011;8710;49.880;8.272;2022-07-29T12:08:15;3.80;;;2.70;;
17189;SDS011;8710;49.880;8.272;2022-07-29T12:10:44;3.53;;;2.78;;
17189;SDS011;8710;49.880;8.272;2022-07-29T12:13:14;3.60;;;2.50;;
17189;SDS011;8710;49.880;8.272;2022-07-29T12:15:42;2.90;;;2.70;;
17189;SDS011;8710;49.880;8.272;2022-07-29T12:18:18;7.78;;;2.83;;
17189;SDS011;8710;49.880;8.272;2022-07-29T12:20:46;2.80;;;2.58;;
17189;SDS011;8710;49.880;8.272;2022-07-29T12:23:14;3.42;;;2.60;;
17189;SDS011;8710;49.880;8.272;2022-07-29T12:25:42;4.00;;;2.70;;
17189;SDS011;8710;49.880;8.272;2022-07-29T12:28:10;4.07;;;2.70;;
17189;SDS011;8710;49.880;8.272;2022-07-29T12:30:43;4.80;;;2.63;;
17189;SDS011;8710;49.880;8.272;2022-07-29T12:33:15;4.80;;;2.72;;
17189;SDS011;8710;49.880;8.272;2022-07-29T12:35:44;4.05;;;3.38;;
17189;SDS011;8710;49.880;8.272;2022-07-29T12:38:13;4.18;;;2.70;;
17189;SDS011;8710;49.880;8.272;2022-07-29T12:40:42;4.03;;;2.67;;
17189;SDS011;8710;49.880;8.272;2022-07-29T12:43:10;6.03;;;2.85;;
17189;SDS011;8710;49.880;8.272;2022-07-29T12:45:39;3.95;;;2.75;;
17189;SDS011;8710;49.880;8.272;2022-07-29T12:48:09;3.58;;;2.75;;
17189;SDS011;8710;49.880;8.272;2022-07-29T12:50:36;2.78;;;2.40;;
17189;SDS011;8710;49.880;8.272;2022-07-29T12:53:18;4.53;;;2.95;;
17189;SDS011;8710;49.880;8.272;2022-07-29T12:55:45;3.63;;;2.80;;
17189;SDS011;8710;49.880;8.272;2022-07-29T12:58:25;5.82;;;2.70;;
17189;SDS011;8710;49.880;8.272;2022-07-29T13:01:07;3.97;;;2.55;;
17189;SDS011;8710;49.880;8.272;2022-07-29T13:03:50;5.43;;;3.00;;
17189;SDS011;8710;49.880;8.272;2022-07-29T13:06:35;4.20;;;2.80;;
17189;SDS011;8710;49.880;8.272;2022-07-29T13:09:08;3.75;;;2.78;;
17189;SDS011;8710;49.880;8.272;2022-07-29T13:11:36;3.72;;;2.45;;
17189;SDS011;8710;49.880;8.272;2022-07-29T13:14:06;5.45;;;2.70;;
17189;SDS011;8710;49.880;8.272;2022-07-29T13:16:34;4.72;;;2.80;;
17189;SDS011;8710;49.880;8.272;2022-07-29T13:19:04;3.50;;;2.70;;
17189;SDS011;8710;49.880;8.272;2022-07-29T13:21:35;2.67;;;2.47;;
17189;SDS011;8710;49.880;8.272;2022-07-29T13:24:03;5.30;;;3.00;;
17189;SDS011;8710;49.880;8.272;2022-07-29T13:26:31;5.22;;;2.92;;
17189;SDS011;8710;49.880;8.272;2022-07-29T13:28:58;2.78;;;2.58;;
17189;SDS011;8710;49.880;8.272;2022-07-29T13:31:25;5.47;;;2.65;;
17189;SDS011;8710;49.880;8.272;2022-07-29T13:33:53;3.80;;;2.67;;
17189;SDS011;8710;49.880;8.272;2022-07-29T13:36:21;3.05;;;2.60;;
17189;SDS011;8710;49.880;8.272;2022-07-29T13:38:48;2.72;;;2.53;;
17189;SDS011;8710;49.880;8.272;2022-07-29T13:41:15;4.95;;;2.85;;
17189;SDS011;8710;49.880;8.272;2022-07-29T13:43:42;5.30;;;2.40;;
17189;SDS011;8710;49.880;8.272;2022-07-29T13:46:09;3.67;;;2.63;;
17189;SDS011;8710;49.880;8.272;2022-07-29T13:48:36;3.72;;;2.80;;
17189;SDS011;8710;49.880;8.272;2022-07-29T13:51:03;5.72;;;3.05;;
17189;SDS011;8710;49.880;8.272;2022-07-29T13:53:31;4.22;;;3.00;;
17189;SDS011;8710;49.880;8.272;2022-07-29T13:55:58;3.55;;;2.90;;
17189;SDS011;8710;49.880;8.272;2022-07-29T13:58:25;3.20;;;2.90;;
17189;SDS011;8710;49.880;8.272;2022-07-29T14:00:52;3.80;;;2.80;;
17189;SDS011;8710;49.880;8.272;2022-07-29T14:03:19;4.53;;;2.97;;
17189;SDS011;8710;49.880;8.272;2022-07-29T14:05:46;3.25;;;2.90;;
17189;SDS011;8710;49.880;8.272;2022-07-29T14:08:13;3.95;;;2.90;;
17189;SDS011;8710;49.880;8.272;2022-07-29T14:10:41;5.82;;;3.30;;
17189;SDS011;8710;49.880;8.272;2022-07-29T14:13:08;4.40;;;3.17;;
17189;SDS011;8710;49.880;8.272;2022-07-29T14:15:35;5.32;;;3.55;;
17189;SDS011;8710;49.880;8.272;2022-07-29T14:18:02;3.60;;;3.30;;
17189;SDS011;8710;49.880;8.272;2022-07-29T14:20:29;12.82;;;3.67;;
17189;SDS011;8710;49.880;8.272;2022-07-29T14:22:57;6.82;;;3.33;;
17189;SDS011;8710;49.880;8.272;2022-07-29T14:25:24;5.38;;;3.40;;
17189;SDS011;8710;49.880;8.272;2022-07-29T14:27:52;4.45;;;3.08;;
17189;SDS011;8710;49.880;8.272;2022-07-29T14:30:19;4.60;;;3.40;;
17189;SDS011;8710;49.880;8.272;2022-07-29T14:32:46;3.85;;;3.35;;
17189;SDS011;8710;49.880;8.272;2022-07-29T14:35:13;3.33;;;3.05;;
17189;SDS011;8710;49.880;8.272;2022-07-29T14:37:40;5.85;;;3.50;;
17189;SDS011;8710;49.880;8.272;2022-07-29T14:40:07;4.65;;;2.97;;
17189;SDS011;8710;49.880;8.272;2022-07-29T14:42:35;5.05;;;3.58;;
17189;SDS011;8710;49.880;8.272;2022-07-29T14:45:05;3.28;;;3.05;;
17189;SDS011;8710;49.880;8.272;2022-07-29T14:47:33;3.45;;;3.10;;
17189;SDS011;8710;49.880;8.272;2022-07-29T14:50:00;3.97;;;3.30;;
17189;SDS011;8710;49.880;8.272;2022-07-29T14:52:27;4.40;;;3.35;;
17189;SDS011;8710;49.880;8.272;2022-07-29T14:54:54;5.97;;;3.60;;
17189;SDS011;8710;49.880;8.272;2022-07-29T14:57:21;3.80;;;3.50;;
17189;SDS011;8710;49.880;8.272;2022-07-29T14:59:48;4.82;;;2.92;;
17189;SDS011;8710;49.880;8.272;2022-07-29T15:02:17;3.33;;;3.00;;
17189;SDS011;8710;49.880;8.272;2022-07-29T15:04:43;4.10;;;3.00;;
17189;SDS011;8710;49.880;8.272;2022-07-29T15:07:12;4.50;;;2.90;;
17189;SDS011;8710;49.880;8.272;2022-07-29T15:09:40;5.20;;;3.22;;
17189;SDS011;8710;49.880;8.272;2022-07-29T15:12:07;7.10;;;3.28;;
17189;SDS011;8710;49.880;8.272;2022-07-29T15:14:35;6.55;;;3.00;;
17189;SDS011;8710;49.880;8.272;2022-07-29T15:17:02;4.40;;;3.15;;
17189;SDS011;8710;49.880;8.272;2022-07-29T15:19:30;6.05;;;3.03;;
17189;SDS011;8710;49.880;8.272;2022-07-29T15:21:57;7.13;;;3.00;;
17189;SDS011;8710;49.880;8.272;2022-07-29T15:24:24;5.28;;;2.80;;
17189;SDS011;8710;49.880;8.272;2022-07-29T15:26:51;3.97;;;3.17;;
17189;SDS011;8710;49.880;8.272;2022-07-29T15:29:18;6.40;;;3.58;;